Airfield :
LOGIN :

Register | Disclaimer

   EN    FR    IT 

 










Legend :    VFR   Marginal VFR   IFR   Intensive IFR   Very Intensive IFR
Visi :
Ceiling :
>= 8 km
>= 3000ft
5 to 8 km
1000 to 3000 ft
1500m to 5 km
500 to 1000 ft
800 to 1500m
200 to 500 ft
< 800m
< 200 ft
Symbols :   Thunderstorms  Fog  Heavy snow  Heavy precipitations  Wind > 20 kt
SIGMETs :     Misc.  Thunderstorms  Icing  Turbulence  Mountain Waves  Volcanic Ashes






- Airport Elevation : 374 ft
- IATA code : LIS


LPPT - Lisboa Portela

CURRENT METAR :
  • 220400Z 33004KT 250V060 9999 FEW009 SCT012 15/14 Q1017

EXPIRED METARs :
  • 220330Z 34003KT 300V020 9999 SCT010 15/14 Q1017
  • 220300Z 34005KT 300V360 9999 FEW010 SCT012 15/13 Q1017
  • 220230Z 34007KT 9999 SCT012 15/13 Q1017
  • 220200Z 33009KT 9999 FEW010 BKN012 16/14 Q1017
  • 220130Z 31004KT 290V360 9999 FEW010 BKN014 16/14 Q1018

TAF TAF LPPT
Valid from the 22 at 00:00 until the 23 at 06:00 UTC


212300Z 2200/2306 34010KT 9999 SCT015
TEMPO 2203/2207 SCT008
BECMG 2212/2215 35015KT CAVOK
PROB40
TEMPO 2215/2223 35020G30KT
BECMG 2221/2224 35010KT



MET'MAP, your aeronautical weather chart ! - Copyright ORBIFLY December 2007 - Disclaimer

ORBIFLY MET'MAP TEAM :

Programming & Development : Alexandra Zaïnal
Concept & original design : Baudouin d'Aumeries
Assistance for programming : Marc-Olivier Méhu
Technical & hardware support : Manuel Goepfert

Contact : metmap@orbifly.com




SOURCES & CREDITS :

   NOAA